sensor_id;sensor_type;location;lat;lon;timestamp;pressure;altitude;pressure_sealevel;temperature;humidity
48778;BME280;34578;0.000;0.000;2023-04-05T00:04:37;97021.25;;;16.46;45.00
48778;BME280;34578;0.000;0.000;2023-04-05T00:09:49;97011.13;;;16.46;44.88
48778;BME280;34578;0.000;0.000;2023-04-05T00:14:50;97012.81;;;16.44;44.58
48778;BME280;34578;0.000;0.000;2023-04-05T00:19:50;97009.44;;;16.45;45.01
48778;BME280;34578;0.000;0.000;2023-04-05T00:24:57;97005.25;;;16.46;44.55
48778;BME280;34578;0.000;0.000;2023-04-05T00:29:57;97006.91;;;16.45;45.02
48778;BME280;34578;0.000;0.000;2023-04-05T00:34:57;97002.75;;;16.47;45.62
48778;BME280;34578;0.000;0.000;2023-04-05T00:39:58;96999.41;;;16.51;46.27
48778;BME280;34578;0.000;0.000;2023-04-05T00:44:58;96996.06;;;16.52;45.20
48778;BME280;34578;0.000;0.000;2023-04-05T00:49:59;96996.84;;;16.47;45.25
48778;BME280;34578;0.000;0.000;2023-04-05T00:55:00;96997.63;;;16.44;45.27
48778;BME280;34578;0.000;0.000;2023-04-05T01:00:01;97000.16;;;16.44;45.37
48778;BME280;34578;0.000;0.000;2023-04-05T01:05:19;96993.41;;;16.43;45.04
48778;BME280;34578;0.000;0.000;2023-04-05T01:10:21;96982.44;;;16.41;44.67
48778;BME280;34578;0.000;0.000;2023-04-05T01:15:26;96972.38;;;16.44;44.73
48778;BME280;34578;0.000;0.000;2023-04-05T01:20:30;96983.28;;;16.42;44.94
48778;BME280;34578;0.000;0.000;2023-04-05T01:30:41;96944.53;;;16.40;44.85
48778;BME280;34578;0.000;0.000;2023-04-05T01:40:47;96939.50;;;16.43;44.75
48778;BME280;34578;0.000;0.000;2023-04-05T01:45:47;96931.06;;;16.39;44.97
48778;BME280;34578;0.000;0.000;2023-04-05T01:50:48;96930.25;;;16.43;45.24
48778;BME280;34578;0.000;0.000;2023-04-05T01:55:48;96935.38;;;16.49;45.70
48778;BME280;34578;0.000;0.000;2023-04-05T02:00:53;96923.59;;;16.51;45.09
48778;BME280;34578;0.000;0.000;2023-04-05T02:05:54;96918.44;;;16.42;45.31
48778;BME280;34578;0.000;0.000;2023-04-05T02:10:55;96907.44;;;16.39;45.49
48778;BME280;34578;0.000;0.000;2023-04-05T02:15:55;96899.84;;;16.37;45.26
48778;BME280;34578;0.000;0.000;2023-04-05T02:21:03;96904.94;;;16.39;45.48
48778;BME280;34578;0.000;0.000;2023-04-05T02:26:04;96904.06;;;16.38;45.16
48778;BME280;34578;0.000;0.000;2023-04-05T02:31:11;96899.88;;;16.39;45.34
48778;BME280;34578;0.000;0.000;2023-04-05T02:36:15;96891.38;;;16.35;44.75
48778;BME280;34578;0.000;0.000;2023-04-05T02:41:16;96888.00;;;16.33;45.13
48778;BME280;34578;0.000;0.000;2023-04-05T02:46:16;96902.41;;;16.39;44.93
48778;BME280;34578;0.000;0.000;2023-04-05T02:51:17;96900.66;;;16.36;44.89
48778;BME280;34578;0.000;0.000;2023-04-05T02:56:17;96901.47;;;16.34;45.48
48778;BME280;34578;0.000;0.000;2023-04-05T03:01:21;96899.78;;;16.34;44.70
48778;BME280;34578;0.000;0.000;2023-04-05T03:06:22;96907.44;;;16.37;45.15
48778;BME280;34578;0.000;0.000;2023-04-05T03:11:24;96898.22;;;16.42;46.39
48778;BME280;34578;0.000;0.000;2023-04-05T03:16:29;96898.25;;;16.45;44.71
48778;BME280;34578;0.000;0.000;2023-04-05T03:21:33;96888.91;;;16.38;44.91
48778;BME280;34578;0.000;0.000;2023-04-05T03:26:43;96895.59;;;16.35;45.01
48778;BME280;34578;0.000;0.000;2023-04-05T03:31:45;96897.25;;;16.34;45.15
48778;BME280;34578;0.000;0.000;2023-04-05T03:36:48;96888.81;;;16.32;44.81
48778;BME280;34578;0.000;0.000;2023-04-05T03:42:04;96895.56;;;16.33;45.12
48778;BME280;34578;0.000;0.000;2023-04-05T03:47:05;96882.03;;;16.27;44.88
48778;BME280;34578;0.000;0.000;2023-04-05T03:52:05;96884.63;;;16.31;44.92
48778;BME280;34578;0.000;0.000;2023-04-05T03:57:06;96877.84;;;16.29;41.37
48778;BME280;34578;0.000;0.000;2023-04-05T04:02:07;96873.63;;;16.28;42.75
48778;BME280;34578;0.000;0.000;2023-04-05T04:07:07;96875.31;;;16.30;43.27
48778;BME280;34578;0.000;0.000;2023-04-05T04:12:08;96883.03;;;16.38;42.74
48778;BME280;34578;0.000;0.000;2023-04-05T04:17:27;96888.94;;;16.43;42.07
48778;BME280;34578;0.000;0.000;2023-04-05T04:22:59;96889.84;;;16.46;42.74
48778;BME280;34578;0.000;0.000;2023-04-05T04:28:22;96887.38;;;16.49;42.96
48778;BME280;34578;0.000;0.000;2023-04-05T04:33:37;96878.13;;;16.54;41.18
48778;BME280;34578;0.000;0.000;2023-04-05T04:39:04;96883.19;;;16.54;40.76
48778;BME280;34578;0.000;0.000;2023-04-05T04:44:25;96873.91;;;16.53;39.80
48778;BME280;34578;0.000;0.000;2023-04-05T04:49:50;96886.53;;;16.53;41.48
48778;BME280;34578;0.000;0.000;2023-04-05T04:54:50;96888.19;;;16.50;41.11
48778;BME280;34578;0.000;0.000;2023-04-05T04:59:51;96878.91;;;16.49;40.93
48778;BME280;34578;0.000;0.000;2023-04-05T05:04:51;96884.84;;;16.49;40.90
48778;BME280;34578;0.000;0.000;2023-04-05T05:09:52;96890.69;;;16.47;39.71
48778;BME280;34578;0.000;0.000;2023-04-05T05:14:53;96895.41;;;16.21;37.64
48778;BME280;34578;0.000;0.000;2023-04-05T05:19:56;96899.69;;;16.25;39.22
48778;BME280;34578;0.000;0.000;2023-04-05T05:24:59;96893.84;;;16.28;38.94
48778;BME280;34578;0.000;0.000;2023-04-05T05:30:00;96900.56;;;16.29;39.33
48778;BME280;34578;0.000;0.000;2023-04-05T05:35:00;96902.28;;;16.31;38.36
48778;BME280;34578;0.000;0.000;2023-04-05T05:40:00;96902.34;;;16.36;38.41
48778;BME280;34578;0.000;0.000;2023-04-05T05:45:03;96912.56;;;16.43;39.88
48778;BME280;34578;0.000;0.000;2023-04-05T05:50:06;96909.19;;;16.44;39.14
48778;BME280;34578;0.000;0.000;2023-04-05T05:55:06;96920.97;;;16.42;38.95
48778;BME280;34578;0.000;0.000;2023-04-05T06:00:08;96918.34;;;16.36;39.70
48778;BME280;34578;0.000;0.000;2023-04-05T06:05:12;96915.00;;;16.37;39.31
48778;BME280;34578;0.000;0.000;2023-04-05T06:10:12;96914.19;;;16.40;39.41
48778;BME280;34578;0.000;0.000;2023-04-05T06:15:13;96915.00;;;16.37;39.10
48778;BME280;34578;0.000;0.000;2023-04-05T06:20:13;96925.13;;;16.37;37.84
48778;BME280;34578;0.000;0.000;2023-04-05T06:25:14;96912.44;;;16.36;38.70
48778;BME280;34578;0.000;0.000;2023-04-05T06:30:14;96914.19;;;16.37;38.79
48778;BME280;34578;0.000;0.000;2023-04-05T06:35:15;96914.09;;;16.34;38.59
48778;BME280;34578;0.000;0.000;2023-04-05T06:40:16;96913.28;;;16.35;38.47
48778;BME280;34578;0.000;0.000;2023-04-05T06:45:16;96916.63;;;16.32;38.70
48778;BME280;34578;0.000;0.000;2023-04-05T06:50:18;96918.31;;;16.33;38.36
48778;BME280;34578;0.000;0.000;2023-04-05T06:55:18;96905.75;;;16.38;38.17
48778;BME280;34578;0.000;0.000;2023-04-05T07:00:19;96904.13;;;16.43;40.60
48778;BME280;34578;0.000;0.000;2023-04-05T07:05:19;96904.13;;;16.43;41.01
48778;BME280;34578;0.000;0.000;2023-04-05T07:10:20;96903.28;;;16.42;39.07
48778;BME280;34578;0.000;0.000;2023-04-05T07:15:20;96899.00;;;16.37;39.54
48778;BME280;34578;0.000;0.000;2023-04-05T07:20:21;96906.59;;;16.38;38.66
48778;BME280;34578;0.000;0.000;2023-04-05T07:25:21;96907.44;;;16.37;39.26
48778;BME280;34578;0.000;0.000;2023-04-05T07:30:21;96913.34;;;16.38;37.41
48778;BME280;34578;0.000;0.000;2023-04-05T07:35:22;96913.38;;;16.39;38.04
48778;BME280;34578;0.000;0.000;2023-04-05T07:40:22;96916.69;;;16.38;37.23
48778;BME280;34578;0.000;0.000;2023-04-05T07:45:22;96912.50;;;16.39;37.81
48778;BME280;34578;0.000;0.000;2023-04-05T07:50:23;96920.94;;;16.41;39.13
48778;BME280;34578;0.000;0.000;2023-04-05T07:55:23;96920.06;;;16.37;37.06
48778;BME280;34578;0.000;0.000;2023-04-05T08:00:24;96917.47;;;16.34;36.74
48778;BME280;34578;0.000;0.000;2023-04-05T08:05:26;96917.53;;;16.37;37.62
48778;BME280;34578;0.000;0.000;2023-04-05T08:10:27;96913.38;;;16.39;39.84
48778;BME280;34578;0.000;0.000;2023-04-05T08:15:27;96920.13;;;16.40;40.05
48778;BME280;34578;0.000;0.000;2023-04-05T08:20:27;96913.38;;;16.39;42.07
48778;BME280;34578;0.000;0.000;2023-04-05T08:25:28;96910.03;;;16.43;40.79
48778;BME280;34578;0.000;0.000;2023-04-05T08:30:28;96899.09;;;16.44;38.91
48778;BME280;34578;0.000;0.000;2023-04-05T08:35:29;96899.91;;;16.43;39.33
48778;BME280;34578;0.000;0.000;2023-04-05T08:40:42;96904.97;;;16.43;38.65
48778;BME280;34578;0.000;0.000;2023-04-05T08:45:49;96900.59;;;16.32;39.06
48778;BME280;34578;0.000;0.000;2023-04-05T08:50:53;96899.91;;;16.40;38.43
48778;BME280;34578;0.000;0.000;2023-04-05T08:55:55;96902.47;;;16.46;38.51
48778;BME280;34578;0.000;0.000;2023-04-05T09:00:57;96902.47;;;16.46;39.54
48778;BME280;34578;0.000;0.000;2023-04-05T09:05:58;96902.41;;;16.42;41.44
48778;BME280;34578;0.000;0.000;2023-04-05T09:10:59;96904.13;;;16.43;40.91
48778;BME280;34578;0.000;0.000;2023-04-05T09:16:00;96904.97;;;16.43;41.02
48778;BME280;34578;0.000;0.000;2023-04-05T09:21:05;96902.44;;;16.43;40.44
48778;BME280;34578;0.000;0.000;2023-04-05T09:26:31;96901.59;;;16.41;40.68
48778;BME280;34578;0.000;0.000;2023-04-05T09:31:35;96906.66;;;16.41;41.70
48778;BME280;34578;0.000;0.000;2023-04-05T09:36:42;96898.22;;;16.42;42.56
48778;BME280;34578;0.000;0.000;2023-04-05T09:42:03;96886.44;;;16.44;42.58
48778;BME280;34578;0.000;0.000;2023-04-05T09:47:15;96878.84;;;16.43;40.86
48778;BME280;34578;0.000;0.000;2023-04-05T09:52:22;96880.50;;;16.41;41.56
48778;BME280;34578;0.000;0.000;2023-04-05T09:57:24;96883.91;;;16.41;40.45
48778;BME280;34578;0.000;0.000;2023-04-05T10:02:35;96878.00;;;16.41;42.48
48778;BME280;34578;0.000;0.000;2023-04-05T10:07:37;96882.22;;;16.43;41.59
48778;BME280;34578;0.000;0.000;2023-04-05T10:12:39;96872.94;;;16.39;41.28
48778;BME280;34578;0.000;0.000;2023-04-05T10:18:08;96876.38;;;16.46;41.64
48778;BME280;34578;0.000;0.000;2023-04-05T10:23:16;96875.56;;;16.48;40.16
48778;BME280;34578;0.000;0.000;2023-04-05T10:28:41;96878.84;;;16.41;41.78
48778;BME280;34578;0.000;0.000;2023-04-05T10:33:44;96883.06;;;16.42;40.92
48778;BME280;34578;0.000;0.000;2023-04-05T10:39:00;96874.53;;;16.34;38.85
48778;BME280;34578;0.000;0.000;2023-04-05T10:44:04;96878.63;;;16.23;41.09
48778;BME280;34578;0.000;0.000;2023-04-05T10:54:11;96879.59;;;16.34;43.48
48778;BME280;34578;0.000;0.000;2023-04-05T10:59:12;96873.75;;;16.37;40.56
48778;BME280;34578;0.000;0.000;2023-04-05T11:04:16;96869.56;;;16.42;40.09
48778;BME280;34578;0.000;0.000;2023-04-05T11:09:18;96867.91;;;16.42;41.10
48778;BME280;34578;0.000;0.000;2023-04-05T11:14:23;96852.75;;;16.45;40.98
48778;BME280;34578;0.000;0.000;2023-04-05T11:25:01;96851.00;;;16.38;40.90
48778;BME280;34578;0.000;0.000;2023-04-05T11:30:03;96847.50;;;16.30;41.49
48778;BME280;34578;0.000;0.000;2023-04-05T11:35:06;96848.41;;;16.32;41.02
48778;BME280;34578;0.000;0.000;2023-04-05T11:40:24;96844.22;;;16.34;41.72
48778;BME280;34578;0.000;0.000;2023-04-05T11:45:26;96844.22;;;16.34;39.92
48778;BME280;34578;0.000;0.000;2023-04-05T11:50:29;96832.44;;;16.36;39.68
48778;BME280;34578;0.000;0.000;2023-04-05T11:55:29;96836.69;;;16.37;38.95
48778;BME280;34578;0.000;0.000;2023-04-05T12:00:30;96838.41;;;16.43;40.56
48778;BME280;34578;0.000;0.000;2023-04-05T12:10:57;96830.91;;;16.47;45.51
48778;BME280;34578;0.000;0.000;2023-04-05T12:15:58;96825.00;;;16.47;46.05
48778;BME280;34578;0.000;0.000;2023-04-05T12:21:04;96812.38;;;16.48;43.44
48778;BME280;34578;0.000;0.000;2023-04-05T12:26:05;96817.44;;;16.48;44.17
48778;BME280;34578;0.000;0.000;2023-04-05T12:31:06;96811.50;;;16.46;44.21
48778;BME280;34578;0.000;0.000;2023-04-05T12:36:09;96811.47;;;16.42;43.85
48778;BME280;34578;0.000;0.000;2023-04-05T12:41:10;96809.78;;;16.42;43.27
48778;BME280;34578;0.000;0.000;2023-04-05T12:46:15;96811.50;;;16.46;44.18
48778;BME280;34578;0.000;0.000;2023-04-05T12:51:16;96808.16;;;16.49;42.85
48778;BME280;34578;0.000;0.000;2023-04-05T12:56:16;96796.25;;;16.37;43.58
48778;BME280;34578;0.000;0.000;2023-04-05T13:01:17;96774.25;;;16.29;45.44
48778;BME280;34578;0.000;0.000;2023-04-05T13:06:18;96779.38;;;16.36;46.19
48778;BME280;34578;0.000;0.000;2023-04-05T13:11:18;96781.97;;;16.39;45.51
48778;BME280;34578;0.000;0.000;2023-04-05T13:16:19;96782.81;;;16.43;45.05
48778;BME280;34578;0.000;0.000;2023-04-05T13:21:19;96778.63;;;16.40;45.58
48778;BME280;34578;0.000;0.000;2023-04-05T13:26:20;96783.69;;;16.43;45.53
48778;BME280;34578;0.000;0.000;2023-04-05T13:31:21;96777.00;;;16.48;47.55
48778;BME280;34578;0.000;0.000;2023-04-05T13:36:23;96776.16;;;16.51;47.38
48778;BME280;34578;0.000;0.000;2023-04-05T13:41:25;96778.72;;;16.52;47.05
48778;BME280;34578;0.000;0.000;2023-04-05T13:46:25;96777.03;;;16.54;46.56
48778;BME280;34578;0.000;0.000;2023-04-05T13:51:26;96770.28;;;16.53;46.27
48778;BME280;34578;0.000;0.000;2023-04-05T13:56:30;96768.53;;;16.46;41.53
48778;BME280;34578;0.000;0.000;2023-04-05T14:01:32;96765.03;;;16.32;40.95
48778;BME280;34578;0.000;0.000;2023-04-05T14:06:33;96755.88;;;16.42;42.95
48778;BME280;34578;0.000;0.000;2023-04-05T14:11:34;96762.63;;;16.41;42.67
48778;BME280;34578;0.000;0.000;2023-04-05T14:16:35;96754.94;;;16.35;42.51
48778;BME280;34578;0.000;0.000;2023-04-05T14:21:37;96764.34;;;16.44;44.79
48778;BME280;34578;0.000;0.000;2023-04-05T14:26:37;96755.91;;;16.45;43.87
48778;BME280;34578;0.000;0.000;2023-04-05T14:31:38;96751.75;;;16.51;46.32
48778;BME280;34578;0.000;0.000;2023-04-05T14:36:39;96754.25;;;16.48;46.15
48778;BME280;34578;0.000;0.000;2023-04-05T14:41:39;96756.78;;;16.47;47.24
48778;BME280;34578;0.000;0.000;2023-04-05T14:46:40;96745.81;;;16.46;47.68
48778;BME280;34578;0.000;0.000;2023-04-05T14:51:40;96738.22;;;16.46;47.57
48778;BME280;34578;0.000;0.000;2023-04-05T14:56:41;96737.47;;;16.55;44.74
48778;BME280;34578;0.000;0.000;2023-04-05T15:01:43;96730.78;;;16.60;45.05
48778;BME280;34578;0.000;0.000;2023-04-05T15:06:46;96729.13;;;16.66;44.80
48778;BME280;34578;0.000;0.000;2023-04-05T15:11:46;96732.47;;;16.67;44.36
48778;BME280;34578;0.000;0.000;2023-04-05T15:16:46;96713.94;;;16.65;45.91
48778;BME280;34578;0.000;0.000;2023-04-05T15:21:47;96719.81;;;16.59;45.81
48778;BME280;34578;0.000;0.000;2023-04-05T15:26:47;96717.38;;;16.73;44.69
48778;BME280;34578;0.000;0.000;2023-04-05T15:31:48;96720.75;;;16.74;44.97
48778;BME280;34578;0.000;0.000;2023-04-05T15:36:48;96719.91;;;16.73;45.22
48778;BME280;34578;0.000;0.000;2023-04-05T15:41:50;96723.25;;;16.70;45.24
48778;BME280;34578;0.000;0.000;2023-04-05T15:46:51;96728.31;;;16.72;44.80
48778;BME280;34578;0.000;0.000;2023-04-05T15:51:51;96732.44;;;16.59;44.43
48778;BME280;34578;0.000;0.000;2023-04-05T15:56:51;96727.38;;;16.59;45.37
48778;BME280;34578;0.000;0.000;2023-04-05T16:01:52;96721.47;;;16.57;47.19
48778;BME280;34578;0.000;0.000;2023-04-05T16:06:53;96719.81;;;16.62;45.64
48778;BME280;34578;0.000;0.000;2023-04-05T16:11:54;96720.66;;;16.61;43.21
48778;BME280;34578;0.000;0.000;2023-04-05T16:16:55;96721.53;;;16.66;43.84
48778;BME280;34578;0.000;0.000;2023-04-05T16:21:55;96717.31;;;16.67;43.79
48778;BME280;34578;0.000;0.000;2023-04-05T16:26:56;96721.50;;;16.63;45.22
48778;BME280;34578;0.000;0.000;2023-04-05T16:31:57;96709.69;;;16.56;44.56
48778;BME280;34578;0.000;0.000;2023-04-05T16:36:57;96721.50;;;16.62;43.39
48778;BME280;34578;0.000;0.000;2023-04-05T16:41:58;96716.44;;;16.57;45.02
48778;BME280;34578;0.000;0.000;2023-04-05T16:46:59;96717.28;;;16.61;44.28
48778;BME280;34578;0.000;0.000;2023-04-05T16:51:59;96715.59;;;16.61;44.51
48778;BME280;34578;0.000;0.000;2023-04-05T16:56:59;96721.50;;;16.62;44.07
48778;BME280;34578;0.000;0.000;2023-04-05T17:02:00;96720.69;;;16.63;43.68
48778;BME280;34578;0.000;0.000;2023-04-05T17:07:01;96726.56;;;16.63;42.96
48778;BME280;34578;0.000;0.000;2023-04-05T17:12:02;96722.34;;;16.62;42.83
48778;BME280;34578;0.000;0.000;2023-04-05T17:17:03;96713.88;;;16.59;45.69
48778;BME280;34578;0.000;0.000;2023-04-05T17:22:06;96724.00;;;16.57;46.31
48778;BME280;34578;0.000;0.000;2023-04-05T17:27:06;96725.69;;;16.58;44.38
48778;BME280;34578;0.000;0.000;2023-04-05T17:32:07;96718.91;;;16.53;43.52
48778;BME280;34578;0.000;0.000;2023-04-05T17:37:07;96733.22;;;16.52;43.78
48778;BME280;34578;0.000;0.000;2023-04-05T17:42:07;96737.44;;;16.52;45.50
48778;BME280;34578;0.000;0.000;2023-04-05T17:47:08;96739.97;;;16.53;46.76
48778;BME280;34578;0.000;0.000;2023-04-05T17:52:08;96741.66;;;16.53;46.70
48778;BME280;34578;0.000;0.000;2023-04-05T17:57:09;96749.25;;;16.56;45.63
48778;BME280;34578;0.000;0.000;2023-04-05T18:02:14;96754.28;;;16.54;45.98
48778;BME280;34578;0.000;0.000;2023-04-05T18:07:14;96758.50;;;16.52;45.95
48778;BME280;34578;0.000;0.000;2023-04-05T18:12:15;96759.34;;;16.51;46.32
48778;BME280;34578;0.000;0.000;2023-04-05T18:17:15;96761.88;;;16.53;44.63
48778;BME280;34578;0.000;0.000;2023-04-05T18:22:17;96774.50;;;16.54;45.25
48778;BME280;34578;0.000;0.000;2023-04-05T18:27:17;96780.44;;;16.56;44.69
48778;BME280;34578;0.000;0.000;2023-04-05T18:32:17;96783.81;;;16.58;47.58
48778;BME280;34578;0.000;0.000;2023-04-05T18:37:18;96792.25;;;16.57;48.23
48778;BME280;34578;0.000;0.000;2023-04-05T18:42:18;96793.88;;;16.55;47.70
48778;BME280;34578;0.000;0.000;2023-04-05T18:47:19;96794.78;;;16.57;46.07
48778;BME280;34578;0.000;0.000;2023-04-05T18:52:20;96796.41;;;16.52;46.76
48778;BME280;34578;0.000;0.000;2023-04-05T18:57:26;96808.22;;;16.52;47.16
48778;BME280;34578;0.000;0.000;2023-04-05T19:02:27;96816.63;;;16.52;47.39
48778;BME280;34578;0.000;0.000;2023-04-05T19:07:27;96823.38;;;16.52;47.37
48778;BME280;34578;0.000;0.000;2023-04-05T19:12:27;96829.25;;;16.49;47.18
48778;BME280;34578;0.000;0.000;2023-04-05T19:17:28;96839.34;;;16.49;47.31
48778;BME280;34578;0.000;0.000;2023-04-05T19:22:28;96835.97;;;16.49;46.74
48778;BME280;34578;0.000;0.000;2023-04-05T19:27:29;96838.53;;;16.52;45.70
48778;BME280;34578;0.000;0.000;2023-04-05T19:32:31;96832.66;;;16.53;44.79
48778;BME280;34578;0.000;0.000;2023-04-05T19:37:33;96848.69;;;16.56;45.42
48778;BME280;34578;0.000;0.000;2023-04-05T19:42:33;96847.81;;;16.56;44.65
48778;BME280;34578;0.000;0.000;2023-04-05T19:47:36;96846.97;;;16.57;46.54
48778;BME280;34578;0.000;0.000;2023-04-05T19:52:45;96858.78;;;16.55;47.11
48778;BME280;34578;0.000;0.000;2023-04-05T19:57:46;96853.72;;;16.55;47.43
48778;BME280;34578;0.000;0.000;2023-04-05T20:02:46;96854.53;;;16.52;45.75
48778;BME280;34578;0.000;0.000;2023-04-05T20:07:47;96855.31;;;16.47;46.70
48778;BME280;34578;0.000;0.000;2023-04-05T20:12:48;96854.50;;;16.49;46.17
48778;BME280;34578;0.000;0.000;2023-04-05T20:17:48;96867.13;;;16.51;45.81
48778;BME280;34578;0.000;0.000;2023-04-05T20:22:49;96862.06;;;16.48;44.81
48778;BME280;34578;0.000;0.000;2023-04-05T20:27:50;96857.88;;;16.48;44.88
48778;BME280;34578;0.000;0.000;2023-04-05T20:32:50;96853.66;;;16.47;45.18
48778;BME280;34578;0.000;0.000;2023-04-05T20:37:50;96861.22;;;16.47;45.42
48778;BME280;34578;0.000;0.000;2023-04-05T20:42:52;96857.81;;;16.45;45.63
48778;BME280;34578;0.000;0.000;2023-04-05T20:47:52;96854.44;;;16.43;45.53
48778;BME280;34578;0.000;0.000;2023-04-05T20:52:53;96861.19;;;16.44;45.53
48778;BME280;34578;0.000;0.000;2023-04-05T20:57:53;96859.50;;;16.43;45.43
48778;BME280;34578;0.000;0.000;2023-04-05T21:02:54;96853.59;;;16.44;46.01
48778;BME280;34578;0.000;0.000;2023-04-05T21:07:54;96852.81;;;16.48;43.29
48778;BME280;34578;0.000;0.000;2023-04-05T21:12:55;96857.91;;;16.54;46.39
48778;BME280;34578;0.000;0.000;2023-04-05T21:18:00;96853.69;;;16.53;44.64
48778;BME280;34578;0.000;0.000;2023-04-05T21:23:01;96856.22;;;16.53;42.39
48778;BME280;34578;0.000;0.000;2023-04-05T21:28:03;96847.75;;;16.48;41.21
48778;BME280;34578;0.000;0.000;2023-04-05T21:33:03;96852.75;;;16.45;44.12
48778;BME280;34578;0.000;0.000;2023-04-05T21:38:04;96860.38;;;16.47;46.22
48778;BME280;34578;0.000;0.000;2023-04-05T21:43:04;96854.44;;;16.43;46.37
48778;BME280;34578;0.000;0.000;2023-04-05T21:48:05;96856.09;;;16.43;45.63
48778;BME280;34578;0.000;0.000;2023-04-05T21:53:05;96861.13;;;16.38;46.34
48778;BME280;34578;0.000;0.000;2023-04-05T21:58:08;96859.47;;;16.40;45.97
48778;BME280;34578;0.000;0.000;2023-04-05T22:03:08;96862.84;;;16.39;45.77
48778;BME280;34578;0.000;0.000;2023-04-05T22:08:09;96859.47;;;16.40;45.29
48778;BME280;34578;0.000;0.000;2023-04-05T22:13:10;96851.03;;;16.40;45.31
48778;BME280;34578;0.000;0.000;2023-04-05T22:18:11;96865.34;;;16.38;45.41
48778;BME280;34578;0.000;0.000;2023-04-05T22:23:12;96857.81;;;16.45;46.61
48778;BME280;34578;0.000;0.000;2023-04-05T22:28:12;96859.50;;;16.46;46.42
48778;BME280;34578;0.000;0.000;2023-04-05T22:33:13;96859.47;;;16.40;45.44
48778;BME280;34578;0.000;0.000;2023-04-05T22:38:13;96852.69;;;16.38;44.96
48778;BME280;34578;0.000;0.000;2023-04-05T22:43:14;96863.66;;;16.37;45.01
48778;BME280;34578;0.000;0.000;2023-04-05T22:48:14;96856.88;;;16.36;44.98
48778;BME280;34578;0.000;0.000;2023-04-05T22:53:14;96854.31;;;16.34;45.53
48778;BME280;34578;0.000;0.000;2023-04-05T22:58:15;96851.75;;;16.33;45.02
48778;BME280;34578;0.000;0.000;2023-04-05T23:03:16;96847.56;;;16.33;45.26
48778;BME280;34578;0.000;0.000;2023-04-05T23:08:16;96842.47;;;16.30;44.91
48778;BME280;34578;0.000;0.000;2023-04-05T23:13:17;96839.94;;;16.30;45.10
48778;BME280;34578;0.000;0.000;2023-04-05T23:18:17;96852.59;;;16.32;44.39
48778;BME280;34578;0.000;0.000;2023-04-05T23:23:21;96842.47;;;16.30;45.18
48778;BME280;34578;0.000;0.000;2023-04-05T23:28:22;96840.81;;;16.32;44.56
48778;BME280;34578;0.000;0.000;2023-04-05T23:33:22;96829.84;;;16.29;44.80
48778;BME280;34578;0.000;0.000;2023-04-05T23:38:22;96832.50;;;16.39;46.02
48778;BME280;34578;0.000;0.000;2023-04-05T23:43:23;96840.13;;;16.42;45.51
48778;BME280;34578;0.000;0.000;2023-04-05T23:48:23;96840.91;;;16.38;43.97
48778;BME280;34578;0.000;0.000;2023-04-05T23:53:26;96834.13;;;16.36;44.69
48778;BME280;34578;0.000;0.000;2023-04-05T23:58:26;96829.03;;;16.34;44.59
